createdAt,value
2018-12-23T00:00:31.049Z,98390.57
2018-12-23T00:02:59.656Z,98395.98
2018-12-23T00:05:28.311Z,98404.05
2018-12-23T00:07:56.926Z,98403.52
2018-12-23T00:10:25.589Z,98409.17
2018-12-23T00:12:54.252Z,98416.14
2018-12-23T00:15:22.903Z,98423.92
2018-12-23T00:17:51.501Z,98422.30
2018-12-23T00:20:20.244Z,98414.77
2018-12-23T00:22:48.844Z,98417.98
2018-12-23T00:25:17.590Z,98419.84
2018-12-23T00:27:46.259Z,98427.34
2018-12-23T00:30:14.963Z,98425.76
2018-12-23T00:32:43.636Z,98433.58
2018-12-23T00:35:20.034Z,98430.07
2018-12-23T00:37:42.900Z,98420.97
2018-12-23T00:40:11.579Z,98424.99
2018-12-23T00:42:40.200Z,98433.88
2018-12-23T00:45:08.836Z,98451.89
2018-12-23T00:47:37.467Z,98443.83
2018-12-23T00:50:07.990Z,98448.95
2018-12-23T00:52:36.650Z,98450.02
2018-12-23T00:55:05.759Z,98454.04
2018-12-23T00:57:34.386Z,98465.59
2018-12-23T01:00:03.240Z,98468.83
2018-12-23T01:02:31.974Z,98474.73
2018-12-23T01:05:00.600Z,98475.80
2018-12-23T01:07:29.276Z,98470.97
2018-12-23T01:09:57.893Z,98473.39
2018-12-23T01:12:26.492Z,98468.27
2018-12-23T01:14:55.103Z,98470.95
2018-12-23T01:17:23.767Z,98472.04
2018-12-23T01:19:52.608Z,98475.55
2018-12-23T01:22:21.240Z,98479.84
2018-12-23T01:24:49.926Z,98483.06
2018-12-23T01:27:18.510Z,98493.02
2018-12-23T01:29:47.119Z,98488.97
2018-12-23T01:32:15.728Z,98490.58
2018-12-23T01:34:44.353Z,98496.22
2018-12-23T01:37:13.060Z,98497.28
2018-12-23T01:39:41.736Z,98494.91
2018-12-23T01:42:10.544Z,98497.03
2018-12-23T01:44:39.179Z,98507.52
2018-12-23T01:47:07.861Z,98509.95
2018-12-23T01:49:36.495Z,98508.06
2018-12-23T01:52:05.324Z,98515.05
2018-12-23T01:54:33.995Z,98517.19
2018-12-23T01:57:02.631Z,98516.66
2018-12-23T01:59:31.276Z,98523.90
2018-12-23T02:01:59.888Z,98530.36
2018-12-23T02:04:28.519Z,98533.85
2018-12-23T02:06:57.211Z,98535.20
2018-12-23T02:09:25.920Z,98535.47
2018-12-23T02:11:54.522Z,98527.94
2018-12-23T02:14:23.246Z,98532.23
2018-12-23T02:16:51.953Z,98535.48
2018-12-23T02:19:20.600Z,98533.06
2018-12-23T02:21:49.237Z,98529.82
2018-12-23T02:24:17.934Z,98532.23
2018-12-23T02:26:46.592Z,98527.42
2018-12-23T02:29:15.252Z,98535.20
2018-12-23T02:31:43.857Z,98544.86
2018-12-23T02:34:12.530Z,98536.80
2018-12-23T02:36:41.189Z,98527.65
2018-12-23T02:39:10.084Z,98533.02
2018-12-23T02:41:38.741Z,98536.47
2018-12-23T02:44:07.443Z,98530.36
2018-12-23T02:46:36.048Z,98524.98
2018-12-23T02:49:04.739Z,98529.27
2018-12-23T02:51:33.359Z,98530.34
2018-12-23T02:54:02.068Z,98527.12
2018-12-23T02:56:30.717Z,98524.16
2018-12-23T02:58:59.447Z,98527.67
2018-12-23T03:01:28.109Z,98518.72
2018-12-23T03:03:56.742Z,98520.59
2018-12-23T03:06:25.367Z,98518.97
2018-12-23T03:08:54.019Z,98525.67
2018-12-23T03:11:22.644Z,98533.19
2018-12-23T03:13:51.355Z,98533.19
2018-12-23T03:16:19.983Z,98529.68
2018-12-23T03:18:48.595Z,98518.70
2018-12-23T03:21:17.194Z,98514.36
2018-12-23T03:23:45.904Z,98530.22
2018-12-23T03:26:14.566Z,98521.85
2018-12-23T03:28:43.333Z,98528.05
2018-12-23T03:31:12.029Z,98516.50
2018-12-23T03:33:40.666Z,98517.05
2018-12-23T03:36:14.906Z,98522.12
2018-12-23T03:38:40.146Z,98518.67
2018-12-23T03:41:08.946Z,98522.75
2018-12-23T03:43:37.648Z,98527.52
2018-12-23T03:46:06.301Z,98521.58
2018-12-23T03:48:34.944Z,98519.44
2018-12-23T03:51:03.673Z,98514.92
2018-12-23T03:53:32.316Z,98522.70
2018-12-23T03:56:00.979Z,98523.26
2018-12-23T03:58:29.591Z,98527.31
2018-12-23T04:00:58.203Z,98520.59
2018-12-23T04:03:26.812Z,98534.53
2018-12-23T04:05:55.495Z,98532.34
2018-12-23T04:08:24.280Z,98540.69
2018-12-23T04:10:52.927Z,98546.06
2018-12-23T04:13:21.645Z,98538.30
2018-12-23T04:15:50.284Z,98532.95
2018-12-23T04:18:18.948Z,98531.02
2018-12-23T04:20:47.562Z,98531.56
2018-12-23T04:23:16.169Z,98539.38
2018-12-23T04:25:44.897Z,98542.52
2018-12-23T04:28:13.687Z,98535.64
2018-12-23T04:30:42.353Z,98549.81
2018-12-23T04:33:10.961Z,98545.79
2018-12-23T04:35:39.797Z,98544.52
2018-12-23T04:38:08.444Z,98544.56
2018-12-23T04:40:37.103Z,98544.78
2018-12-23T04:43:05.859Z,98543.95
2018-12-23T04:45:34.514Z,98535.38
2018-12-23T04:48:03.227Z,98535.38
2018-12-23T04:50:31.816Z,98531.63
2018-12-23T04:53:00.452Z,98526.53
2018-12-23T04:55:29.212Z,98526.33
2018-12-23T04:57:57.942Z,98528.40
2018-12-23T05:00:26.687Z,98534.58
2018-12-23T05:02:55.285Z,98541.53
2018-12-23T05:05:23.943Z,98542.89
2018-12-23T05:07:52.611Z,98537.78
2018-12-23T05:10:21.194Z,98538.83
2018-12-23T05:12:49.854Z,98545.87
2018-12-23T05:15:18.444Z,98539.75
2018-12-23T05:17:47.067Z,98540.23
2018-12-23T05:20:15.668Z,98546.92
2018-12-23T05:22:44.508Z,98544.86
2018-12-23T05:25:13.154Z,98542.69
2018-12-23T05:27:41.859Z,98546.73
2018-12-23T05:30:10.441Z,98546.64
2018-12-23T05:32:39.127Z,98546.38
2018-12-23T05:35:07.775Z,98550.11
2018-12-23T05:37:36.399Z,98554.45
2018-12-23T05:40:05.476Z,98552.05
2018-12-23T05:42:34.168Z,98555.50
2018-12-23T05:45:02.783Z,98563.34
2018-12-23T05:47:31.452Z,98560.55
2018-12-23T05:50:00.172Z,98565.92
2018-12-23T05:52:28.871Z,98549.84
2018-12-23T05:54:57.689Z,98560.89
2018-12-23T05:57:26.288Z,98571.39
2018-12-23T05:59:54.980Z,98570.22
2018-12-23T06:02:23.605Z,98574.30
2018-12-23T06:04:52.175Z,98562.75
2018-12-23T06:07:20.760Z,98568.97
2018-12-23T06:09:49.392Z,98574.55
2018-12-23T06:12:18.025Z,98583.18
2018-12-23T06:14:46.821Z,98589.36
2018-12-23T06:17:15.417Z,98596.34
2018-12-23T06:19:44.008Z,98590.70
2018-12-23T06:22:12.693Z,98590.92
2018-12-23T06:24:41.312Z,98595.27
2018-12-23T06:27:10.067Z,98592.07
2018-12-23T06:29:38.652Z,98591.23
2018-12-23T06:32:07.263Z,98592.31
2018-12-23T06:34:35.897Z,98595.80
2018-12-23T06:37:10.026Z,98592.53
2018-12-23T06:39:35.136Z,98588.58
2018-12-23T06:42:03.751Z,98591.52
2018-12-23T06:44:32.367Z,98584.28
2018-12-23T06:47:00.961Z,98586.20
2018-12-23T06:49:29.610Z,98578.91
2018-12-23T06:51:58.234Z,98582.13
2018-12-23T06:54:26.885Z,98582.38
2018-12-23T06:56:55.511Z,98589.61
2018-12-23T06:59:24.156Z,98585.14
2018-12-23T07:01:52.805Z,98598.25
2018-12-23T07:04:21.419Z,98591.05
2018-12-23T07:06:50.135Z,98593.92
2018-12-23T07:09:18.764Z,98581.92
2018-12-23T07:11:47.491Z,98585.95
2018-12-23T07:14:16.160Z,98582.72
2018-12-23T07:16:44.875Z,98583.75
2018-12-23T07:19:13.484Z,98584.60
2018-12-23T07:21:42.176Z,98585.18
2018-12-23T07:24:10.806Z,98584.87
2018-12-23T07:26:39.544Z,98582.45
2018-12-23T07:29:08.188Z,98584.63
2018-12-23T07:31:36.805Z,98584.06
2018-12-23T07:34:05.455Z,98589.48
2018-12-23T07:36:34.152Z,98587.30
2018-12-23T07:39:04.999Z,98590.55
2018-12-23T07:41:33.630Z,98582.20
2018-12-23T07:44:02.238Z,98587.57
2018-12-23T07:46:30.854Z,98582.47
2018-12-23T07:48:59.448Z,98579.50
2018-12-23T07:51:28.128Z,98587.87
2018-12-23T07:53:56.715Z,98591.91
2018-12-23T07:56:25.323Z,98589.98
2018-12-23T07:58:53.953Z,98585.70
2018-12-23T08:01:22.568Z,98592.98
2018-12-23T08:03:51.267Z,98595.14
2018-12-23T08:06:19.929Z,98595.16
2018-12-23T08:08:48.610Z,98601.06
2018-12-23T08:11:17.300Z,98601.05
2018-12-23T08:13:46.011Z,98593.21
2018-12-23T08:16:14.672Z,98603.75
2018-12-23T08:18:43.343Z,98605.91
2018-12-23T08:21:12.134Z,98607.48
2018-12-23T08:23:40.923Z,98607.48
2018-12-23T08:26:09.543Z,98609.38
2018-12-23T08:28:38.139Z,98611.01
2018-12-23T08:31:06.784Z,98612.61
2018-12-23T08:33:35.464Z,98607.77
2018-12-23T08:36:04.055Z,98611.81
2018-12-23T08:38:32.748Z,98605.65
2018-12-23T08:41:01.347Z,98608.88
2018-12-23T08:43:30.008Z,98613.73
2018-12-23T08:45:58.737Z,98608.59
2018-12-23T08:51:40.222Z,98619.90
2018-12-23T08:54:10.028Z,98617.73
2018-12-23T08:56:39.864Z,98617.73
2018-12-23T08:59:09.683Z,98620.70
2018-12-23T09:01:39.500Z,98608.35
2018-12-23T09:04:09.297Z,98608.35
2018-12-23T09:06:39.128Z,98620.44
2018-12-23T09:09:08.991Z,98620.44
2018-12-23T09:11:42.825Z,98619.89
2018-12-23T09:14:10.338Z,98611.84
2018-12-23T09:16:40.280Z,98611.84
2018-12-23T09:19:10.145Z,98617.48
2018-12-23T09:21:40.026Z,98622.05
2018-12-23T09:24:09.870Z,98620.45
2018-12-23T09:26:40.497Z,98616.66
2018-12-23T09:29:10.316Z,98616.66
2018-12-23T09:31:40.142Z,98613.97
2018-12-23T09:34:10.001Z,98609.14
2018-12-23T09:36:39.814Z,98601.63
2018-12-23T09:39:09.765Z,98613.17
2018-12-23T09:41:39.595Z,98609.13
2018-12-23T09:44:09.396Z,98603.77
2018-12-23T09:46:39.214Z,98605.61
2018-12-23T09:49:09.203Z,98605.61
2018-12-23T09:51:39.022Z,98589.77
2018-12-23T09:54:08.837Z,98593.53
2018-12-23T09:56:38.660Z,98593.53
2018-12-23T09:59:08.517Z,98593.00
2018-12-23T10:01:38.341Z,98587.61
2018-12-23T10:04:08.189Z,98580.06
2018-12-23T10:06:38.007Z,98571.45
2018-12-23T10:09:08.350Z,98577.91
2018-12-23T10:11:38.192Z,98571.15
2018-12-23T10:14:08.561Z,98571.15
2018-12-23T10:16:38.809Z,98563.66
2018-12-23T10:19:08.590Z,98555.33
2018-12-23T10:21:38.415Z,98555.33
2018-12-23T10:24:08.315Z,98559.30
2018-12-23T10:26:38.165Z,98555.27
2018-12-23T10:29:08.291Z,98555.27
2018-12-23T10:31:38.104Z,98544.27
2018-12-23T10:34:08.482Z,98537.78
2018-12-23T10:36:38.241Z,98537.44
2018-12-23T10:39:08.449Z,98522.67
2018-12-23T10:41:38.270Z,98526.41
2018-12-23T10:44:08.136Z,98526.41
2018-12-23T10:46:37.963Z,98516.13
2018-12-23T10:49:07.778Z,98512.13
2018-12-23T10:51:37.740Z,98512.13
2018-12-23T10:54:07.551Z,98515.11
2018-12-23T10:56:37.371Z,98511.04
2018-12-23T10:59:07.205Z,98507.51
2018-12-23T11:01:37.061Z,98503.52
2018-12-23T11:04:06.893Z,98490.98
2018-12-23T11:06:36.797Z,98490.98
2018-12-23T11:09:07.575Z,98489.84
2018-12-23T11:11:37.380Z,98470.50
2018-12-23T11:14:07.319Z,98470.50
2018-12-23T11:16:37.112Z,98465.48
2018-12-23T11:19:07.041Z,98465.48
2018-12-23T11:21:37.339Z,98452.68
2018-12-23T11:24:07.358Z,98452.68
2018-12-23T11:26:37.158Z,98453.27
2018-12-23T11:29:07.007Z,98453.27
2018-12-23T11:31:36.799Z,98439.98
2018-12-23T11:34:06.643Z,98439.98
2018-12-23T11:36:36.462Z,98448.77
2018-12-23T11:39:08.744Z,98433.17
2018-12-23T11:41:38.576Z,98427.30
2018-12-23T11:44:08.405Z,98418.70
2018-12-23T11:46:38.221Z,98403.76
2018-12-23T11:49:08.073Z,98403.76
2018-12-23T11:51:37.917Z,98405.16
2018-12-23T11:54:07.767Z,98409.92
2018-12-23T11:56:37.579Z,98396.71
2018-12-23T11:59:07.390Z,98396.71
2018-12-23T12:01:37.190Z,98400.98
2018-12-23T12:04:07.006Z,98402.67
2018-12-23T12:06:36.806Z,98389.18
2018-12-23T12:09:08.650Z,98390.52
2018-12-23T12:11:38.467Z,98390.52
2018-12-23T12:14:08.509Z,98376.42
2018-12-23T12:16:38.326Z,98376.42
2018-12-23T12:19:08.160Z,98378.52
2018-12-23T12:21:37.977Z,98348.71
2018-12-23T12:24:07.803Z,98351.31
2018-12-23T12:26:37.700Z,98351.31
2018-12-23T12:29:07.536Z,98351.63
2018-12-23T12:31:37.345Z,98356.73
2018-12-23T12:34:07.190Z,98351.50
2018-12-23T12:36:37.089Z,98347.08
2018-12-23T12:39:08.659Z,98338.55
2018-12-23T12:41:38.462Z,98340.70
2018-12-23T12:44:08.301Z,98337.52
2018-12-23T12:46:38.090Z,98327.03
2018-12-23T12:49:07.949Z,98330.59
2018-12-23T12:51:37.963Z,98330.59
2018-12-23T12:54:07.813Z,98311.68
2018-12-23T12:56:37.603Z,98311.68
2018-12-23T12:59:07.492Z,98308.44
2018-12-23T13:01:37.319Z,98308.44
2018-12-23T13:04:07.132Z,98316.64
2018-12-23T13:06:36.932Z,98316.64
2018-12-23T13:09:08.053Z,98310.71
2018-12-23T13:11:37.856Z,98310.93
2018-12-23T13:14:07.836Z,98310.93
2018-12-23T13:16:37.639Z,98306.92
2018-12-23T13:19:07.717Z,98298.05
2018-12-23T13:21:37.518Z,98299.67
2018-12-23T13:24:07.368Z,98293.28
2018-12-23T13:26:37.187Z,98293.28
2018-12-23T13:29:07.025Z,98284.07
2018-12-23T13:31:36.846Z,98272.08
2018-12-23T13:34:06.669Z,98270.87
2018-12-23T13:36:36.478Z,98271.19
2018-12-23T13:39:09.489Z,98267.62
2018-12-23T13:42:27.945Z,98267.62
2018-12-23T13:45:10.070Z,98250.87
2018-12-23T13:48:10.576Z,98250.87
2018-12-23T13:51:16.313Z,98256.91
2018-12-23T13:54:13.712Z,98257.22
2018-12-23T13:57:38.508Z,98247.33
2018-12-23T14:00:39.259Z,98253.47
2018-12-23T14:03:45.764Z,98241.39
2018-12-23T14:06:36.817Z,98219.30
2018-12-23T14:09:52.492Z,98221.88
2018-12-23T14:12:22.312Z,98221.88
2018-12-23T14:14:52.324Z,98214.54
2018-12-23T14:17:22.273Z,98213.47
2018-12-23T14:19:52.088Z,98213.47
2018-12-23T14:22:21.916Z,98214.82
2018-12-23T14:24:51.731Z,98212.17
2018-12-23T14:27:21.593Z,98201.90
2018-12-23T14:29:51.386Z,98196.77
2018-12-23T14:32:21.246Z,98202.72
2018-12-23T14:34:52.314Z,98194.48
2018-12-23T14:37:22.275Z,98191.34
2018-12-23T14:39:52.070Z,98178.43
2018-12-23T14:42:21.889Z,98178.43
2018-12-23T14:44:54.911Z,98169.39
2018-12-23T14:47:24.812Z,98169.39
2018-12-23T14:49:54.659Z,98154.92
2018-12-23T14:52:24.595Z,98154.92
2018-12-23T14:54:54.417Z,98154.89
2018-12-23T14:57:24.555Z,98141.34
2018-12-23T14:59:54.399Z,98141.34
2018-12-23T15:02:24.227Z,98141.47
2018-12-23T15:04:57.035Z,98137.86
2018-12-23T15:07:26.856Z,98138.27
2018-12-23T15:09:56.682Z,98130.45
2018-12-23T15:12:26.478Z,98129.61
2018-12-23T15:14:56.433Z,98118.95
2018-12-23T15:17:26.257Z,98105.45
2018-12-23T15:19:56.063Z,98103.40
2018-12-23T15:22:25.882Z,98103.40
2018-12-23T15:24:55.694Z,98106.45
2018-12-23T15:27:25.519Z,98103.74
2018-12-23T15:29:55.317Z,98099.61
2018-12-23T15:32:25.249Z,98093.80
2018-12-23T15:34:55.058Z,98087.31
2018-12-23T15:37:24.942Z,98087.31
2018-12-23T15:39:55.107Z,98092.61
2018-12-23T15:42:24.893Z,98094.00
2018-12-23T15:44:54.730Z,98095.89
2018-12-23T15:47:24.609Z,98083.06
2018-12-23T15:49:54.377Z,98079.97
2018-12-23T15:52:24.182Z,98070.31
2018-12-23T15:54:54.053Z,98069.23
2018-12-23T15:57:23.854Z,98062.41
2018-12-23T15:59:53.673Z,98063.47
2018-12-23T16:02:23.504Z,98055.87
2018-12-23T16:04:54.745Z,98046.49
2018-12-23T16:07:24.724Z,98040.13
2018-12-23T16:09:54.568Z,98033.85
2018-12-23T16:12:24.490Z,98033.91
2018-12-23T16:14:57.537Z,98029.20
2018-12-23T16:17:27.440Z,98027.80
2018-12-23T16:19:57.262Z,98002.61
2018-12-23T16:22:27.074Z,98002.61
2018-12-23T16:24:56.945Z,97995.34
2018-12-23T16:27:26.745Z,98005.52
2018-12-23T16:29:56.689Z,97985.67
2018-12-23T16:32:26.515Z,97985.67
2018-12-23T16:34:56.644Z,97972.22
2018-12-23T16:37:26.427Z,97969.27
2018-12-23T16:39:59.627Z,97958.98
2018-12-23T16:42:27.770Z,97958.98
2018-12-23T16:44:57.570Z,97950.91
2018-12-23T16:47:27.388Z,97955.74
2018-12-23T16:49:57.186Z,97953.39
2018-12-23T16:52:27.017Z,97940.10
2018-12-23T16:54:56.937Z,97923.55
2018-12-23T16:57:26.757Z,97923.55
2018-12-23T16:59:56.553Z,97923.42
2018-12-23T17:02:26.457Z,97911.33
2018-12-23T17:04:56.278Z,97911.33
2018-12-23T17:07:26.068Z,97910.06
2018-12-23T17:09:55.893Z,97907.93
2018-12-23T17:12:25.688Z,97896.92
2018-12-23T17:14:55.505Z,97896.30
2018-12-23T17:17:25.299Z,97883.56
2018-12-23T17:19:55.368Z,97883.56
2018-12-23T17:22:25.169Z,97876.77
2018-12-23T17:24:54.972Z,97873.24
2018-12-23T17:27:24.973Z,97871.52
2018-12-23T17:29:54.780Z,97866.56
2018-12-23T17:32:24.646Z,97860.44
2018-12-23T17:34:54.659Z,97854.72
2018-12-23T17:37:24.444Z,97855.72
2018-12-23T17:39:54.247Z,97839.38
2018-12-23T17:42:24.083Z,97828.38
2018-12-23T17:44:53.915Z,97826.23
2018-12-23T17:47:23.725Z,97804.27
2018-12-23T17:49:53.645Z,97804.27
2018-12-23T17:52:23.672Z,97808.74
2018-12-23T17:54:53.547Z,97808.74
2018-12-23T17:57:23.368Z,97800.63
2018-12-23T17:59:53.162Z,97800.63
2018-12-23T18:02:22.996Z,97782.00
2018-12-23T18:04:52.769Z,97782.00
2018-12-23T18:07:22.741Z,97781.41
2018-12-23T18:09:52.598Z,97768.48
2018-12-23T18:12:22.523Z,97766.04
2018-12-23T18:14:52.464Z,97757.73
2018-12-23T18:17:22.379Z,97757.73
2018-12-23T18:19:52.185Z,97763.42
2018-12-23T18:22:21.981Z,97761.72
2018-12-23T18:24:54.347Z,97754.68
2018-12-23T18:27:24.181Z,97751.28
2018-12-23T18:29:54.006Z,97751.28
2018-12-23T18:32:23.923Z,97753.59
2018-12-23T18:34:53.731Z,97748.92
2018-12-23T18:37:23.559Z,97736.38
2018-12-23T18:39:53.352Z,97736.04
2018-12-23T18:42:23.257Z,97734.14
2018-12-23T18:44:53.150Z,97732.25
2018-12-23T18:47:23.049Z,97727.53
2018-12-23T18:49:52.860Z,97731.55
2018-12-23T18:52:22.735Z,97729.97
2018-12-23T18:54:52.518Z,97731.45
2018-12-23T18:57:23.109Z,97715.64
2018-12-23T18:59:53.679Z,97715.64
2018-12-23T19:02:30.413Z,97705.22
2018-12-23T19:05:00.424Z,97696.44
2018-12-23T19:07:30.220Z,97699.30
2018-12-23T19:10:32.319Z,97699.30
2018-12-23T19:13:46.273Z,97693.38
2018-12-23T19:16:37.693Z,97689.70
2018-12-23T19:20:15.842Z,97688.92
2018-12-23T19:23:26.383Z,97676.17
2018-12-23T19:26:49.331Z,97671.39
2018-12-23T19:29:59.662Z,97660.77
2018-12-23T19:32:54.742Z,97660.12
2018-12-23T19:36:07.280Z,97650.61
2018-12-23T19:39:29.791Z,97645.91
2018-12-23T19:42:41.783Z,97639.31
2018-12-23T19:46:03.167Z,97647.17
2018-12-23T19:49:25.734Z,97639.20
2018-12-23T19:52:36.279Z,97624.84
2018-12-23T19:55:42.589Z,97622.54
2018-12-23T19:58:52.021Z,97615.91
2018-12-23T20:02:02.156Z,97611.54
2018-12-23T20:05:18.866Z,97598.09
2018-12-23T20:08:30.466Z,97589.48
2018-12-23T20:11:29.894Z,97587.77
2018-12-23T20:14:55.840Z,97594.69
2018-12-23T20:18:24.498Z,97585.28
2018-12-23T20:21:44.304Z,97586.38
2018-12-23T20:24:57.712Z,97582.52
2018-12-23T20:28:16.973Z,97580.19
2018-12-23T20:31:45.771Z,97563.45
2018-12-23T20:34:53.445Z,97552.45
2018-12-23T20:37:37.149Z,97550.58
2018-12-23T20:40:50.207Z,97540.49
2018-12-23T20:44:07.946Z,97540.49
2018-12-23T20:47:13.148Z,97543.84
2018-12-23T20:50:32.911Z,97540.19
2018-12-23T20:53:50.725Z,97530.36
2018-12-23T20:57:07.373Z,97530.68
2018-12-23T21:00:05.581Z,97528.94
2018-12-23T21:03:27.609Z,97530.02
2018-12-23T21:06:33.109Z,97527.82
2018-12-23T21:09:41.033Z,97519.03
2018-12-23T21:12:51.514Z,97514.95
2018-12-23T21:16:06.269Z,97491.62
2018-12-23T21:19:21.265Z,97490.02
2018-12-23T21:22:33.618Z,97490.02
2018-12-23T21:26:17.916Z,97483.56
2018-12-23T21:29:30.657Z,97493.13
2018-12-23T21:32:56.581Z,97485.11
2018-12-23T21:36:07.267Z,97485.11
2018-12-23T21:39:14.132Z,97479.52
2018-12-23T21:42:18.802Z,97479.52
2018-12-23T21:45:32.227Z,97459.48
2018-12-23T21:48:31.991Z,97453.46
2018-12-23T21:51:25.560Z,97453.46
2018-12-23T21:54:21.683Z,97445.13
2018-12-23T21:57:43.023Z,97432.37
2018-12-23T22:01:00.344Z,97438.78
2018-12-23T22:04:04.918Z,97433.63
2018-12-23T22:07:14.553Z,97418.11
2018-12-23T22:10:25.303Z,97418.11
2018-12-23T22:13:26.703Z,97416.38
2018-12-23T22:15:56.653Z,97413.03
2018-12-23T22:18:27.601Z,97413.03
2018-12-23T22:20:58.045Z,97406.49
2018-12-23T22:23:29.063Z,97392.63
2018-12-23T22:26:01.260Z,97390.73
2018-12-23T22:28:31.225Z,97379.47
2018-12-23T22:31:01.053Z,97361.85
2018-12-23T22:33:30.972Z,97364.22
2018-12-23T22:36:00.795Z,97351.38
2018-12-23T22:38:30.635Z,97349.00
2018-12-23T22:41:09.942Z,97349.00
2018-12-23T22:43:39.766Z,97344.78
2018-12-23T22:46:09.566Z,97343.38
2018-12-23T22:48:39.397Z,97334.72
2018-12-23T22:51:09.207Z,97333.52
2018-12-23T22:53:39.209Z,97320.58
2018-12-23T22:56:09.102Z,97311.83
2018-12-23T22:58:38.985Z,97315.17
2018-12-23T23:01:08.906Z,97315.17
2018-12-23T23:03:38.724Z,97327.97
2018-12-23T23:06:08.564Z,97310.73
2018-12-23T23:08:38.360Z,97309.69
2018-12-23T23:11:08.189Z,97315.64
2018-12-23T23:13:38.002Z,97308.98
2018-12-23T23:16:07.835Z,97295.48
2018-12-23T23:18:37.655Z,97305.72
2018-12-23T23:21:07.758Z,97299.06
2018-12-23T23:23:37.565Z,97299.44
2018-12-23T23:26:07.472Z,97286.18
2018-12-23T23:28:37.287Z,97284.45
2018-12-23T23:31:07.089Z,97271.19
2018-12-23T23:33:36.926Z,97268.34
2018-12-23T23:36:06.723Z,97263.74
2018-12-23T23:38:36.564Z,97262.30
2018-12-23T23:41:06.447Z,97262.30
2018-12-23T23:43:36.272Z,97265.88
2018-12-23T23:46:06.069Z,97247.84
2018-12-23T23:48:35.919Z,97247.84
2018-12-23T23:51:05.736Z,97261.03
2018-12-23T23:53:35.539Z,97251.64
2018-12-23T23:56:05.396Z,97234.52
2018-12-23T23:58:35.184Z,97234.52
